createdAt,value
2019-03-19T00:00:58.614Z,2.70
2019-03-19T00:11:04.120Z,2.70
2019-03-19T00:21:09.674Z,2.60
2019-03-19T00:31:15.273Z,1.80
2019-03-19T00:41:26.803Z,1.60
2019-03-19T00:51:32.316Z,1.50
2019-03-19T01:01:38.787Z,1.80
2019-03-19T01:11:44.718Z,1.70
2019-03-19T01:21:50.288Z,1.60
2019-03-19T01:31:55.793Z,1.40
2019-03-19T01:42:01.378Z,1.50
2019-03-19T01:52:06.900Z,1.60
2019-03-19T02:02:12.393Z,1.60
2019-03-19T02:12:17.899Z,1.40
2019-03-19T02:22:23.497Z,1.10
2019-03-19T02:32:29.034Z,0.90
2019-03-19T02:42:34.625Z,1.10
2019-03-19T02:52:40.214Z,1.10
2019-03-19T03:02:45.722Z,1.10
2019-03-19T03:12:52.342Z,0.80
2019-03-19T03:22:57.941Z,0.70
2019-03-19T03:33:03.429Z,0.70
2019-03-19T03:43:09.083Z,0.60
2019-03-19T03:53:15.282Z,0.60
2019-03-19T04:03:20.873Z,0.50
2019-03-19T04:13:26.514Z,0.50
2019-03-19T04:23:32.119Z,0.40
2019-03-19T04:33:37.685Z,0.50
2019-03-19T04:43:43.273Z,0.40
2019-03-19T04:53:49.204Z,0.40
2019-03-19T05:03:54.799Z,0.30
2019-03-19T05:14:00.414Z,0.70
2019-03-19T05:24:05.953Z,0.80
2019-03-19T05:34:11.674Z,1.00
2019-03-19T05:44:17.196Z,1.30
2019-03-19T05:54:23.825Z,1.40
2019-03-19T06:04:29.381Z,1.60
2019-03-19T06:14:34.919Z,2.00
2019-03-19T06:24:40.538Z,2.40
2019-03-19T06:34:46.049Z,2.70
2019-03-19T06:44:51.543Z,3.20
2019-03-19T06:54:57.041Z,3.60
2019-03-19T07:05:02.554Z,4.00
2019-03-19T07:15:14.176Z,4.00
2019-03-19T07:25:19.697Z,4.10
2019-03-19T07:35:25.218Z,4.30
2019-03-19T07:45:30.806Z,4.80
2019-03-19T07:55:36.315Z,5.20
2019-03-19T08:05:41.836Z,5.40
2019-03-19T08:15:47.394Z,5.60
2019-03-19T08:25:52.954Z,6.20
2019-03-19T08:36:08.768Z,6.70
2019-03-19T08:46:05.660Z,6.70
2019-03-19T08:56:11.162Z,6.70
2019-03-19T09:06:16.635Z,6.70
2019-03-19T09:16:22.125Z,6.60
2019-03-19T09:26:27.658Z,7.40
2019-03-19T09:36:34.147Z,7.60
2019-03-19T09:46:40.821Z,7.50
2019-03-19T09:56:46.336Z,7.60
2019-03-19T10:06:51.816Z,8.40
2019-03-19T10:16:57.304Z,8.40
2019-03-19T10:27:02.795Z,8.50
2019-03-19T10:37:08.336Z,8.40
2019-03-19T10:47:13.787Z,8.10
2019-03-19T10:57:19.394Z,7.70
2019-03-19T11:07:24.982Z,8.80
2019-03-19T11:17:30.548Z,8.60
2019-03-19T11:27:36.087Z,9.00
2019-03-19T11:37:41.594Z,9.30
2019-03-19T11:47:48.077Z,9.30
2019-03-19T11:57:53.794Z,8.50
2019-03-19T12:07:59.470Z,7.80
2019-03-19T12:18:07.529Z,7.70
2019-03-19T12:28:13.633Z,8.00
2019-03-19T12:38:19.156Z,9.60
2019-03-19T12:48:24.730Z,9.70
2019-03-19T12:58:30.353Z,9.70
2019-03-19T13:08:35.898Z,9.90
2019-03-19T13:18:41.580Z,10.50
2019-03-19T13:28:49.130Z,9.70
2019-03-19T13:38:54.606Z,9.30
2019-03-19T13:49:00.072Z,9.50
2019-03-19T13:59:05.574Z,9.20
2019-03-19T14:09:11.062Z,8.70
2019-03-19T14:19:16.594Z,8.60
2019-03-19T14:29:22.099Z,8.40
2019-03-19T14:39:27.676Z,8.40
2019-03-19T14:49:33.286Z,8.40
2019-03-19T14:59:39.078Z,8.10
2019-03-19T15:09:46.054Z,8.10
2019-03-19T15:19:57.208Z,8.10
2019-03-19T15:30:20.824Z,8.30
2019-03-19T15:40:27.561Z,8.20
2019-03-19T15:50:33.318Z,8.10
2019-03-19T16:00:42.525Z,8.00
2019-03-19T16:10:48.369Z,7.70
2019-03-19T16:20:59.227Z,7.60
2019-03-19T16:31:05.040Z,7.30
2019-03-19T16:41:12.015Z,7.10
2019-03-19T16:51:18.064Z,6.70
2019-03-19T17:01:23.877Z,6.40
2019-03-19T17:11:29.920Z,6.10
2019-03-19T17:32:23.520Z,5.70
2019-03-19T17:42:29.415Z,5.50
2019-03-19T17:52:35.465Z,5.10
2019-03-19T18:02:45.023Z,4.90
2019-03-19T18:12:50.977Z,4.80
2019-03-19T18:22:56.874Z,4.60
2019-03-19T18:33:02.955Z,4.40
2019-03-19T18:43:08.848Z,4.20
2019-03-19T18:53:14.763Z,4.00
2019-03-19T19:03:20.748Z,3.80
2019-03-19T19:13:28.744Z,3.40
2019-03-19T19:23:34.643Z,3.30
2019-03-19T19:33:40.594Z,3.30
2019-03-19T19:43:47.598Z,3.00
2019-03-19T19:53:55.143Z,2.60
2019-03-19T20:04:01.109Z,2.40
2019-03-19T20:14:07.076Z,2.60
2019-03-19T20:24:13.036Z,2.30
2019-03-19T20:34:18.957Z,2.10
2019-03-19T20:44:24.929Z,1.80
2019-03-19T20:54:30.656Z,1.60
2019-03-19T21:04:41.006Z,1.50
2019-03-19T21:14:46.839Z,2.40
2019-03-19T21:24:52.717Z,2.50
2019-03-19T21:34:58.554Z,2.60
2019-03-19T21:45:11.216Z,2.40
2019-03-19T21:55:16.907Z,2.20
2019-03-19T22:05:22.509Z,2.40
2019-03-19T22:25:32.993Z,2.40
2019-03-19T22:35:38.634Z,2.50
2019-03-19T22:45:44.123Z,2.90
2019-03-19T22:55:49.637Z,2.90
2019-03-19T23:05:55.140Z,2.80
2019-03-19T23:16:00.682Z,2.60
2019-03-19T23:26:06.333Z,2.20
2019-03-19T23:36:11.909Z,2.30
2019-03-19T23:46:17.401Z,2.40
2019-03-19T23:56:22.915Z,2.40
